createdAt,value
2023-07-26T00:01:50.240Z,94676.60
2023-07-26T00:04:16.873Z,94680.40
2023-07-26T00:06:43.539Z,94689.60
2023-07-26T00:09:10.278Z,94695.00
2023-07-26T00:11:37.784Z,94695.20
2023-07-26T00:14:06.506Z,94698.60
2023-07-26T00:16:34.789Z,94706.20
2023-07-26T00:19:02.315Z,94712.40
2023-07-26T00:21:29.590Z,94712.60
2023-07-26T00:23:56.325Z,94710.40
2023-07-26T00:26:23.055Z,94710.60
2023-07-26T00:28:49.676Z,94712.80
2023-07-26T00:31:16.351Z,94715.80
2023-07-26T00:33:43.030Z,94712.80
2023-07-26T00:36:10.566Z,94714.20
2023-07-26T00:38:37.393Z,94719.80
2023-07-26T00:41:04.132Z,94724.40
2023-07-26T00:43:30.896Z,94722.40
2023-07-26T00:45:57.749Z,94726.00
2023-07-26T00:48:25.834Z,94728.20
2023-07-26T00:50:53.010Z,94724.20
2023-07-26T00:53:20.259Z,94727.00
2023-07-26T00:55:47.052Z,94725.60
2023-07-26T00:58:15.629Z,94728.20
2023-07-26T01:00:45.988Z,94733.80
2023-07-26T01:03:13.967Z,94734.60
2023-07-26T01:06:28.943Z,94735.80
2023-07-26T01:09:10.771Z,94738.80
2023-07-26T01:11:50.018Z,94735.80
2023-07-26T01:14:34.468Z,94734.00
2023-07-26T01:17:01.176Z,94742.00
2023-07-26T01:19:27.860Z,94745.00
2023-07-26T01:21:54.533Z,94750.20
2023-07-26T01:24:21.276Z,94751.00
2023-07-26T01:26:47.978Z,94749.20
2023-07-26T01:29:14.730Z,94756.00
2023-07-26T01:31:42.060Z,94755.00
2023-07-26T01:34:10.386Z,94753.80
2023-07-26T01:36:38.159Z,94752.00
2023-07-26T01:39:08.612Z,94753.00
2023-07-26T01:41:36.600Z,94751.40
2023-07-26T01:44:05.040Z,94752.20
2023-07-26T01:46:31.693Z,94757.60
2023-07-26T01:48:58.646Z,94756.60
2023-07-26T01:51:25.428Z,94754.60
2023-07-26T01:53:52.075Z,94757.80
2023-07-26T01:56:18.744Z,94759.20
2023-07-26T01:58:45.399Z,94755.40
2023-07-26T02:01:12.138Z,94762.80
2023-07-26T02:03:38.810Z,94763.20
2023-07-26T02:06:05.542Z,94761.60
2023-07-26T02:08:32.201Z,94766.40
2023-07-26T02:10:59.329Z,94764.40
2023-07-26T02:13:26.018Z,94764.80
2023-07-26T02:15:52.653Z,94771.20
2023-07-26T02:18:19.450Z,94772.60
2023-07-26T02:20:46.112Z,94775.40
2023-07-26T02:23:12.776Z,94780.60
2023-07-26T02:25:39.410Z,94786.00
2023-07-26T02:28:06.128Z,94786.60
2023-07-26T02:30:32.756Z,94783.40
2023-07-26T02:32:59.479Z,94793.80
2023-07-26T02:35:26.184Z,94796.20
2023-07-26T02:37:52.830Z,94803.20
2023-07-26T02:40:19.447Z,94804.00
2023-07-26T02:42:46.066Z,94806.40
2023-07-26T02:45:12.634Z,94813.00
2023-07-26T02:47:39.269Z,94811.00
2023-07-26T02:50:06.384Z,94815.60
2023-07-26T02:52:34.395Z,94819.40
2023-07-26T02:55:02.250Z,94816.00
2023-07-26T02:57:28.916Z,94817.80
2023-07-26T02:59:55.647Z,94829.40
2023-07-26T03:02:23.804Z,94830.00
2023-07-26T03:04:50.832Z,94829.00
2023-07-26T03:07:17.444Z,94831.00
2023-07-26T03:09:44.134Z,94833.60
2023-07-26T03:12:10.823Z,94833.80
2023-07-26T03:14:42.056Z,94837.80
2023-07-26T03:19:41.701Z,94839.20
2023-07-26T03:22:08.467Z,94842.40
2023-07-26T03:24:35.182Z,94842.80
2023-07-26T03:27:02.146Z,94845.40
2023-07-26T03:29:28.822Z,94843.60
2023-07-26T03:31:55.535Z,94847.60
2023-07-26T03:34:22.218Z,94848.40
2023-07-26T03:36:48.922Z,94849.20
2023-07-26T03:39:15.644Z,94851.00
2023-07-26T03:41:42.315Z,94853.80
2023-07-26T03:44:08.977Z,94859.40
2023-07-26T03:46:35.771Z,94857.20
2023-07-26T03:49:04.976Z,94857.60
2023-07-26T03:51:31.671Z,94856.60
2023-07-26T03:53:58.265Z,94862.00
2023-07-26T03:56:25.062Z,94864.20
2023-07-26T03:58:51.784Z,94863.20
2023-07-26T04:01:18.485Z,94868.00
2023-07-26T04:03:45.322Z,94871.00
2023-07-26T04:06:13.838Z,94875.80
2023-07-26T04:08:43.563Z,94876.80
2023-07-26T04:11:12.941Z,94879.80
2023-07-26T04:13:39.537Z,94879.20
2023-07-26T04:16:18.457Z,94881.80
2023-07-26T04:18:46.126Z,94887.40
2023-07-26T04:21:18.709Z,94884.80
2023-07-26T04:23:47.294Z,94883.40
2023-07-26T04:26:14.349Z,94890.20
2023-07-26T04:28:41.080Z,94887.80
2023-07-26T04:31:07.828Z,94885.20
2023-07-26T04:33:34.598Z,94888.80
2023-07-26T04:36:01.469Z,94892.00
2023-07-26T04:38:28.397Z,94891.60
2023-07-26T04:40:55.097Z,94890.00
2023-07-26T04:43:21.896Z,94893.40
2023-07-26T04:45:51.003Z,94900.00
2023-07-26T04:48:19.570Z,94895.20
2023-07-26T04:50:48.603Z,94894.60
2023-07-26T04:53:16.301Z,94897.00
2023-07-26T04:55:49.436Z,94905.60
2023-07-26T04:58:16.621Z,94908.40
2023-07-26T05:00:43.474Z,94915.00
2023-07-26T05:03:11.169Z,94919.40
2023-07-26T05:05:38.602Z,94922.40
2023-07-26T05:08:07.547Z,94921.20
2023-07-26T05:10:35.187Z,94915.80
2023-07-26T05:13:02.027Z,94916.00
2023-07-26T05:15:28.845Z,94919.60
2023-07-26T05:17:55.795Z,94925.20
2023-07-26T05:20:22.407Z,94924.60
2023-07-26T05:22:49.069Z,94933.00
2023-07-26T05:25:15.792Z,94937.60
2023-07-26T05:27:42.491Z,94940.40
2023-07-26T05:30:09.633Z,94938.80
2023-07-26T05:32:36.413Z,94945.40
2023-07-26T05:35:04.180Z,94949.00
2023-07-26T05:37:35.716Z,94953.80
2023-07-26T05:40:04.236Z,94956.20
2023-07-26T05:42:31.029Z,94956.40
2023-07-26T05:44:57.741Z,94957.80
2023-07-26T05:47:25.213Z,94959.60
2023-07-26T05:49:51.918Z,94961.20
2023-07-26T05:52:20.340Z,94967.60
2023-07-26T05:54:47.302Z,94964.80
2023-07-26T05:57:14.025Z,94965.40
2023-07-26T05:59:40.758Z,94971.00
2023-07-26T06:02:07.400Z,94970.40
2023-07-26T06:04:36.213Z,94974.00
2023-07-26T06:07:05.034Z,94973.00
2023-07-26T06:09:35.276Z,94979.00
2023-07-26T06:12:02.537Z,94979.20
2023-07-26T06:14:30.265Z,94987.00
2023-07-26T06:16:57.240Z,94988.20
2023-07-26T06:19:24.293Z,94991.60
2023-07-26T06:21:56.833Z,94995.20
2023-07-26T06:24:25.688Z,94995.20
2023-07-26T06:26:55.761Z,95000.40
2023-07-26T06:29:22.765Z,95004.80
2023-07-26T06:31:49.953Z,95005.60
2023-07-26T06:34:16.815Z,95001.20
2023-07-26T06:36:43.500Z,95003.00
2023-07-26T06:39:10.312Z,95003.80
2023-07-26T06:41:36.954Z,95009.20
2023-07-26T06:44:04.215Z,95010.40
2023-07-26T06:46:30.942Z,95008.40
2023-07-26T06:48:57.625Z,95009.80
2023-07-26T06:51:24.241Z,95014.60
2023-07-26T06:53:50.999Z,95011.80
2023-07-26T06:56:21.768Z,95014.20
2023-07-26T06:58:50.269Z,95016.20
2023-07-26T07:01:18.635Z,95021.40
2023-07-26T07:03:46.269Z,95026.60
2023-07-26T07:06:15.516Z,95025.00
2023-07-26T07:08:42.236Z,95024.60
2023-07-26T07:11:08.854Z,95030.00
2023-07-26T07:13:37.400Z,95033.40
2023-07-26T07:16:05.395Z,95036.80
2023-07-26T07:18:33.341Z,95039.20
2023-07-26T07:21:02.179Z,95040.60
2023-07-26T07:23:31.098Z,95041.40
2023-07-26T07:25:58.037Z,95041.60
2023-07-26T07:28:25.573Z,95042.00
2023-07-26T07:30:52.727Z,95042.00
2023-07-26T07:33:19.579Z,95040.20
2023-07-26T07:35:46.432Z,95039.00
2023-07-26T07:38:13.089Z,95041.20
2023-07-26T07:40:39.780Z,95041.20
2023-07-26T07:43:06.488Z,95044.00
2023-07-26T07:45:33.193Z,95038.60
2023-07-26T07:47:59.895Z,95042.60
2023-07-26T07:50:26.635Z,95044.80
2023-07-26T07:52:53.265Z,95045.00
2023-07-26T07:55:20.018Z,95049.80
2023-07-26T07:57:46.721Z,95053.80
2023-07-26T08:00:14.015Z,95055.80
2023-07-26T08:02:41.144Z,95059.60
2023-07-26T08:05:08.153Z,95059.40
2023-07-26T08:07:34.819Z,95059.40
2023-07-26T08:10:01.692Z,95059.20
2023-07-26T08:12:28.335Z,95056.00
2023-07-26T08:14:54.991Z,95058.00
2023-07-26T08:17:21.627Z,95060.40
2023-07-26T08:19:48.323Z,95057.80
2023-07-26T08:22:15.031Z,95059.60
2023-07-26T08:24:42.212Z,95061.20
2023-07-26T08:27:09.484Z,95061.20
2023-07-26T08:29:36.193Z,95062.80
2023-07-26T08:32:02.992Z,95063.80
2023-07-26T08:34:29.638Z,95066.80
2023-07-26T08:36:56.307Z,95064.80
2023-07-26T08:39:34.320Z,95067.40
2023-07-26T08:42:04.517Z,95067.60
2023-07-26T08:44:34.259Z,95064.40
2023-07-26T08:47:01.907Z,95068.20
2023-07-26T08:49:30.054Z,95071.60
2023-07-26T08:51:58.943Z,95069.40
2023-07-26T08:54:25.663Z,95065.20
2023-07-26T08:56:53.751Z,95064.60
2023-07-26T08:59:20.371Z,95067.80
2023-07-26T09:02:01.832Z,95066.20
2023-07-26T09:04:32.745Z,95065.40
2023-07-26T09:07:07.109Z,95062.40
2023-07-26T09:09:36.016Z,95059.80
2023-07-26T09:12:04.239Z,95057.00
2023-07-26T09:14:33.293Z,95046.60
2023-07-26T09:17:05.127Z,95048.20
2023-07-26T09:19:40.199Z,95050.20
2023-07-26T09:22:09.905Z,95045.60
2023-07-26T09:24:41.235Z,95041.60
2023-07-26T09:27:12.169Z,95042.80
2023-07-26T09:29:42.281Z,95047.40
2023-07-26T09:32:09.574Z,95051.80
2023-07-26T09:34:36.501Z,95051.20
2023-07-26T09:37:03.714Z,95055.40
2023-07-26T09:39:33.209Z,95055.60
2023-07-26T09:42:07.937Z,95055.80
2023-07-26T09:44:37.031Z,95052.80
2023-07-26T09:47:04.372Z,95053.00
2023-07-26T09:49:32.214Z,95048.60
2023-07-26T09:54:35.909Z,95054.00
2023-07-26T09:57:07.551Z,95051.00
2023-07-26T09:59:40.327Z,95049.20
2023-07-26T10:02:12.303Z,95050.40
2023-07-26T10:04:52.162Z,95047.60
2023-07-26T10:07:19.581Z,95041.60
2023-07-26T10:09:48.898Z,95029.40
2023-07-26T10:12:16.444Z,95026.60
2023-07-26T10:14:44.212Z,95025.20
2023-07-26T10:17:14.409Z,95020.60
2023-07-26T10:19:45.189Z,95015.20
2023-07-26T10:22:12.681Z,95019.80
2023-07-26T10:24:43.465Z,95023.20
2023-07-26T10:27:11.348Z,95024.60
2023-07-26T10:29:38.152Z,95025.40
2023-07-26T10:32:08.287Z,95027.40
2023-07-26T10:34:35.579Z,95026.60
2023-07-26T10:37:17.443Z,95022.80
2023-07-26T10:39:45.282Z,95025.60
2023-07-26T10:42:30.688Z,95021.40
2023-07-26T10:45:02.908Z,95021.80
2023-07-26T10:47:30.903Z,95010.20
2023-07-26T10:50:07.433Z,95009.60
2023-07-26T10:52:38.950Z,95010.80
2023-07-26T10:55:23.918Z,95006.60
2023-07-26T10:57:50.862Z,95008.80
2023-07-26T11:00:23.947Z,94998.80
2023-07-26T11:03:01.215Z,94996.60
2023-07-26T11:05:30.657Z,94992.80
2023-07-26T11:08:09.185Z,94993.20
2023-07-26T11:10:39.180Z,94985.60
2023-07-26T11:13:19.501Z,94990.20
2023-07-26T11:16:15.730Z,94986.00
2023-07-26T11:18:44.248Z,94989.80
2023-07-26T11:21:17.986Z,94989.80
2023-07-26T11:23:45.328Z,94987.40
2023-07-26T11:26:12.001Z,94979.60
2023-07-26T11:28:39.380Z,94981.40
2023-07-26T11:31:06.927Z,94976.40
2023-07-26T11:33:44.899Z,94975.80
2023-07-26T11:36:21.195Z,94980.40
2023-07-26T11:38:49.205Z,94986.80
2023-07-26T11:41:20.087Z,94987.00
2023-07-26T11:43:48.514Z,95019.00
2023-07-26T11:46:15.311Z,95053.40
2023-07-26T11:48:45.825Z,95108.40
2023-07-26T11:51:12.589Z,95104.00
2023-07-26T11:53:46.160Z,95111.20
2023-07-26T11:56:16.108Z,95118.40
2023-07-26T11:58:43.655Z,95120.20
2023-07-26T12:01:10.536Z,95126.20
2023-07-26T12:03:37.891Z,95126.40
2023-07-26T12:06:08.872Z,95129.00
2023-07-26T12:08:39.443Z,95128.80
2023-07-26T12:11:07.629Z,95129.60
2023-07-26T12:13:37.793Z,95128.20
2023-07-26T12:16:05.529Z,95136.60
2023-07-26T12:18:33.458Z,95136.00
2023-07-26T12:21:14.272Z,95135.20
2023-07-26T12:24:04.481Z,95128.20
2023-07-26T12:26:36.342Z,95126.60
2023-07-26T12:29:06.587Z,95137.40
2023-07-26T12:31:36.773Z,95133.00
2023-07-26T12:34:12.894Z,95127.20
2023-07-26T12:36:42.317Z,95126.20
2023-07-26T12:39:10.987Z,95123.00
2023-07-26T12:41:43.577Z,95130.00
2023-07-26T12:44:11.596Z,95126.60
2023-07-26T12:47:11.297Z,95126.00
2023-07-26T12:49:28.294Z,95126.60
2023-07-26T12:51:55.435Z,95125.00
2023-07-26T12:54:25.004Z,95123.20
2023-07-26T12:56:53.426Z,95116.00
2023-07-26T12:59:20.187Z,95120.00
2023-07-26T13:01:46.940Z,95123.80
2023-07-26T13:04:13.746Z,95120.60
2023-07-26T13:06:40.785Z,95119.40
2023-07-26T13:09:08.807Z,95120.40
2023-07-26T13:11:35.571Z,95126.40
2023-07-26T13:14:02.742Z,95119.20
2023-07-26T13:16:32.766Z,95112.80
2023-07-26T13:19:04.954Z,95114.00
2023-07-26T13:21:32.833Z,95113.60
2023-07-26T13:24:00.160Z,95107.60
2023-07-26T13:26:29.242Z,95101.20
2023-07-26T13:28:55.869Z,95102.40
2023-07-26T13:31:23.183Z,95098.20
2023-07-26T13:33:51.820Z,95099.80
2023-07-26T13:36:23.288Z,95098.80
2023-07-26T13:38:50.305Z,95103.00
2023-07-26T13:41:17.048Z,95105.40
2023-07-26T13:43:43.593Z,95107.20
2023-07-26T13:46:24.280Z,95107.60
2023-07-26T13:48:56.973Z,95109.40
2023-07-26T13:51:23.692Z,95112.40
2023-07-26T13:53:50.278Z,95111.40
2023-07-26T13:56:17.001Z,95117.80
2023-07-26T13:58:44.031Z,95124.60
2023-07-26T14:01:12.201Z,95127.80
2023-07-26T14:03:38.882Z,95131.40
2023-07-26T14:06:06.247Z,95131.60
2023-07-26T14:08:32.891Z,95138.20
2023-07-26T14:11:00.495Z,95140.80
2023-07-26T14:13:27.312Z,95142.60
2023-07-26T14:16:00.764Z,95141.20
2023-07-26T14:18:34.512Z,95143.20
2023-07-26T14:21:01.305Z,95146.80
2023-07-26T14:23:31.995Z,95149.80
2023-07-26T14:26:00.474Z,95152.00
2023-07-26T14:28:28.268Z,95152.00
2023-07-26T14:30:56.037Z,95155.80
2023-07-26T14:33:22.884Z,95162.00
2023-07-26T14:35:49.504Z,95162.20
2023-07-26T14:38:16.148Z,95168.60
2023-07-26T14:40:43.282Z,95164.40
2023-07-26T14:43:09.902Z,95168.60
2023-07-26T14:45:36.518Z,95172.60
2023-07-26T14:48:03.589Z,95167.40
2023-07-26T14:50:30.214Z,95171.20
2023-07-26T14:52:56.828Z,95169.40
2023-07-26T14:55:23.689Z,95169.60
2023-07-26T14:57:50.379Z,95170.60
2023-07-26T15:00:17.229Z,95170.80
2023-07-26T15:02:44.067Z,95179.40
2023-07-26T15:05:10.875Z,95180.40
2023-07-26T15:07:38.749Z,95182.00
2023-07-26T15:10:08.090Z,95185.80
2023-07-26T15:12:35.085Z,95184.60
2023-07-26T15:15:01.972Z,95182.60
2023-07-26T15:17:28.615Z,95182.20
2023-07-26T15:19:56.513Z,95180.80
2023-07-26T15:22:24.538Z,95181.60
2023-07-26T15:24:51.244Z,95182.20
2023-07-26T15:27:18.687Z,95178.60
2023-07-26T15:29:45.424Z,95171.00
2023-07-26T15:32:15.312Z,95171.20
2023-07-26T15:34:42.372Z,95176.60
2023-07-26T15:37:09.110Z,95169.40
2023-07-26T15:39:35.755Z,95174.60
2023-07-26T15:49:36.415Z,95168.40
2023-07-26T15:52:05.638Z,95171.80
2023-07-26T15:54:32.788Z,95173.60
2023-07-26T15:56:59.410Z,95171.60
2023-07-26T15:59:26.148Z,95183.00
2023-07-26T16:01:52.937Z,95185.20
2023-07-26T16:19:54.043Z,95197.40
2023-07-26T16:22:08.854Z,95201.80
2023-07-26T16:24:35.931Z,95200.80
2023-07-26T16:27:02.763Z,95203.60
2023-07-26T16:29:29.498Z,95211.00
2023-07-26T16:31:56.321Z,95206.80
2023-07-26T16:34:22.991Z,95209.80
2023-07-26T16:36:49.602Z,95215.00
2023-07-26T16:39:16.330Z,95213.40
2023-07-26T16:41:44.231Z,95221.60
2023-07-26T16:44:11.264Z,95223.60
2023-07-26T16:46:57.772Z,95220.00
2023-07-26T16:49:24.481Z,95218.60
2023-07-26T16:51:51.211Z,95221.40
2023-07-26T16:54:17.876Z,95226.20
2023-07-26T16:56:44.558Z,95234.60
2023-07-26T16:59:11.272Z,95235.60
2023-07-26T17:01:38.076Z,95242.80
2023-07-26T17:04:05.171Z,95246.40
2023-07-26T17:06:32.201Z,95250.60
2023-07-26T17:08:59.373Z,95252.40
2023-07-26T17:11:26.108Z,95253.00
2023-07-26T17:13:52.717Z,95252.80
2023-07-26T17:16:19.384Z,95251.40
2023-07-26T17:18:47.970Z,95248.00
2023-07-26T17:21:15.934Z,95246.00
2023-07-26T17:23:43.510Z,95243.20
2023-07-26T17:26:10.739Z,95245.60
2023-07-26T17:28:37.723Z,95246.40
2023-07-26T17:31:04.557Z,95247.40
2023-07-26T17:33:32.539Z,95241.60
2023-07-26T17:36:00.369Z,95247.60
2023-07-26T17:38:27.703Z,95247.20
2023-07-26T17:41:05.282Z,95250.40
2023-07-26T17:43:33.884Z,95246.20
2023-07-26T17:46:00.568Z,95243.80
2023-07-26T17:48:28.349Z,95244.00
2023-07-26T17:50:55.267Z,95240.60
2023-07-26T17:53:23.191Z,95242.20
2023-07-26T17:55:49.902Z,95242.40
2023-07-26T17:58:16.536Z,95239.60
2023-07-26T18:00:43.451Z,95244.60
2023-07-26T18:03:10.457Z,95249.20
2023-07-26T18:05:37.240Z,95251.40
2023-07-26T18:08:06.065Z,95252.60
2023-07-26T18:10:35.998Z,95255.40
2023-07-26T18:13:03.865Z,95261.80
2023-07-26T18:15:30.899Z,95262.40
2023-07-26T18:17:57.715Z,95263.20
2023-07-26T18:20:24.534Z,95268.40
2023-07-26T18:22:51.212Z,95277.80
2023-07-26T18:25:18.305Z,95281.20
2023-07-26T18:27:44.947Z,95289.20
2023-07-26T18:30:12.825Z,95300.80
2023-07-26T18:32:39.678Z,95304.20
2023-07-26T18:35:06.892Z,95308.20
2023-07-26T18:37:33.561Z,95309.00
2023-07-26T18:40:00.756Z,95308.80
2023-07-26T18:42:27.424Z,95305.40
2023-07-26T18:44:54.031Z,95308.00
2023-07-26T18:47:20.693Z,95302.40
2023-07-26T18:49:47.366Z,95308.40
2023-07-26T18:52:14.067Z,95310.80
2023-07-26T18:54:40.723Z,95312.00
2023-07-26T18:57:07.585Z,95315.40
2023-07-26T18:59:34.235Z,95312.80
2023-07-26T19:02:00.916Z,95310.20
2023-07-26T19:04:27.628Z,95309.20
2023-07-26T19:06:54.403Z,95306.20
2023-07-26T19:09:21.107Z,95308.20
2023-07-26T19:11:50.337Z,95307.60
2023-07-26T19:14:17.161Z,95304.60
2023-07-26T19:16:44.050Z,95310.00
2023-07-26T19:19:10.818Z,95311.00
2023-07-26T19:21:37.573Z,95310.80
2023-07-26T19:24:06.358Z,95311.20
2023-07-26T19:26:33.144Z,95307.20
2023-07-26T19:29:00.042Z,95304.20
2023-07-26T19:31:26.653Z,95302.20
2023-07-26T19:33:53.397Z,95302.60
2023-07-26T19:36:20.131Z,95304.40
2023-07-26T19:38:46.833Z,95305.80
2023-07-26T19:41:17.087Z,95305.00
2023-07-26T19:43:44.082Z,95308.80
2023-07-26T19:46:16.228Z,95304.40
2023-07-26T19:48:44.306Z,95309.60
2023-07-26T19:51:11.070Z,95313.40
2023-07-26T19:53:37.736Z,95313.00
2023-07-26T19:56:04.969Z,95310.00
2023-07-26T19:58:31.600Z,95309.80
2023-07-26T20:00:59.018Z,95309.40
2023-07-26T20:03:26.527Z,95308.40
2023-07-26T20:05:54.187Z,95309.80
2023-07-26T20:08:23.532Z,95313.80
2023-07-26T20:10:51.416Z,95313.40
2023-07-26T20:13:18.716Z,95317.60
2023-07-26T20:15:46.493Z,95322.40
2023-07-26T20:18:14.489Z,95328.20
2023-07-26T20:20:45.338Z,95328.40
2023-07-26T20:23:12.117Z,95327.40
2023-07-26T20:25:40.386Z,95332.40
2023-07-26T20:28:08.395Z,95332.60
2023-07-26T20:30:37.094Z,95336.80
2023-07-26T20:33:03.954Z,95337.60
2023-07-26T20:35:30.685Z,95337.00
2023-07-26T20:37:57.479Z,95336.60
2023-07-26T20:40:24.321Z,95337.80
2023-07-26T20:42:51.152Z,95340.40
2023-07-26T20:45:17.780Z,95338.40
2023-07-26T20:47:44.915Z,95341.00
2023-07-26T20:50:11.750Z,95341.40
2023-07-26T20:52:38.370Z,95340.00
2023-07-26T20:55:05.883Z,95342.60
2023-07-26T20:57:32.471Z,95342.20
2023-07-26T20:59:59.249Z,95344.20
2023-07-26T21:02:25.950Z,95339.80
2023-07-26T21:04:52.635Z,95337.60
2023-07-26T21:07:19.269Z,95336.00
2023-07-26T21:09:45.845Z,95339.00
2023-07-26T21:12:12.508Z,95338.80
2023-07-26T21:14:39.271Z,95335.20
2023-07-26T21:17:06.271Z,95332.60
2023-07-26T21:19:33.564Z,95331.40
2023-07-26T21:22:00.410Z,95329.20
2023-07-26T21:24:27.119Z,95326.40
2023-07-26T21:26:53.800Z,95327.00
2023-07-26T21:29:20.345Z,95325.40
2023-07-26T21:31:47.043Z,95328.60
2023-07-26T21:34:13.840Z,95328.20
2023-07-26T21:36:40.484Z,95327.20
2023-07-26T21:39:08.258Z,95328.60
2023-07-26T21:41:34.948Z,95325.00
2023-07-26T21:44:01.565Z,95332.00
2023-07-26T21:46:28.291Z,95336.80
2023-07-26T21:48:54.919Z,95331.60
2023-07-26T21:51:21.650Z,95329.60
2023-07-26T21:53:48.317Z,95329.60
2023-07-26T21:56:15.024Z,95334.20
2023-07-26T21:58:41.752Z,95340.40
2023-07-26T22:01:08.493Z,95334.80
2023-07-26T22:03:35.265Z,95332.00
2023-07-26T22:06:02.047Z,95328.80
2023-07-26T22:08:28.784Z,95325.20
2023-07-26T22:11:00.237Z,95331.00
2023-07-26T22:13:27.460Z,95326.00
2023-07-26T22:15:54.231Z,95326.40
2023-07-26T22:18:21.288Z,95320.60
2023-07-26T22:21:07.732Z,95321.20
2023-07-26T22:23:34.738Z,95322.40
2023-07-26T22:26:13.386Z,95323.00
2023-07-26T22:28:42.545Z,95322.00
2023-07-26T22:31:09.549Z,95315.60
2023-07-26T22:33:36.371Z,95315.40
2023-07-26T22:36:04.861Z,95315.40
2023-07-26T22:38:31.553Z,95317.60
2023-07-26T22:40:58.193Z,95311.60
2023-07-26T22:43:24.804Z,95312.40
2023-07-26T22:45:51.627Z,95305.20
2023-07-26T22:48:18.374Z,95306.20
2023-07-26T22:50:44.999Z,95301.00
2023-07-26T22:53:11.609Z,95298.60
2023-07-26T22:55:38.289Z,95296.20
2023-07-26T22:58:06.500Z,95292.60
2023-07-26T23:00:33.492Z,95296.20
2023-07-26T23:03:00.246Z,95296.40
2023-07-26T23:05:27.060Z,95297.40
2023-07-26T23:07:53.646Z,95298.40
2023-07-26T23:10:21.598Z,95297.60
2023-07-26T23:12:48.361Z,95295.60
2023-07-26T23:15:15.141Z,95291.60
2023-07-26T23:17:41.850Z,95290.60
2023-07-26T23:20:09.067Z,95289.00
2023-07-26T23:22:35.693Z,95288.60
2023-07-26T23:25:02.357Z,95285.40
2023-07-26T23:27:29.081Z,95282.60
2023-07-26T23:29:57.360Z,95280.20
2023-07-26T23:32:24.281Z,95282.60
2023-07-26T23:34:51.158Z,95282.40
2023-07-26T23:37:17.692Z,95281.00
2023-07-26T23:39:44.757Z,95277.00
2023-07-26T23:42:11.457Z,95273.60
2023-07-26T23:44:38.122Z,95270.20
2023-07-26T23:47:05.258Z,95271.40
2023-07-26T23:49:32.021Z,95269.00
2023-07-26T23:51:58.626Z,95265.00
2023-07-26T23:54:25.968Z,95265.00
2023-07-26T23:56:52.593Z,95262.60
2023-07-26T23:59:19.207Z,95263.80
